Hammond Crossroads, South Carolina
Current Conditions -  °F | °C
As of 9:58 AM on Saturday 01 Nov 2014 (Local Time) from KMMT Reporting Station
Drizzle Drizzle  
Wind Chill: 30°   Ceiling: 1200
Heat Index: 39°   Visibility: 10mi
Dew Point: 36°   Wind: 16mph
Humidity: 91%   Direction: 300°WNW
Pressure: 29.69"   Gusts: 24mph
Location:  33.7122°N, 80.8747°W
Report Text: KMMT 011358Z 30014G21KT 10SM -DZ BKN012 OVC020 04/02 A2969 RMK AO2A SLP057 P0001 T00380024
Loading
Personal Weather Stations






























Interactive Weather Map
Tropical Storm Tracking
New forecast layout! Learn more

10-Day Weather Forecast

Advertisements
Track Severe Weather on mobile